Time;durP1;ratioP1;P1;durP2;ratioP2;P2;SDS_P1;SDS_P2;PMS_P1;PMS_P2;Temp;Humidity;BMP_temperature;BMP_pressure;BME280_temperature;BME280_humidity;BME280_pressure;Samples;Min_cycle;Max_cycle;Signal;HPM_P1;HPM_P2
2022/01/12 00:01:36;;;;;;;87.18;31.42;;;;;;;;;;5053643;28;20372;-68
2022/01/12 00:04:02;;;;;;;92.65;32.15;;;;;;;;;;5053060;28;20049;-68
2022/01/12 00:06:28;;;;;;;93.93;34.47;;;;;;;;;;5051877;28;20407;-68
2022/01/12 00:08:54;;;;;;;93.65;32.85;;;;;;;;;;5051805;28;20055;-68
2022/01/12 00:11:22;;;;;;;91.18;33.80;;;;;;;;;;5024875;28;20050;-69
2022/01/12 00:13:51;;;;;;;91.78;34.63;;;;;;;;;;5046776;28;20049;-69
2022/01/12 00:16:17;;;;;;;101.60;36.38;;;;;;;;;;5048762;28;20045;-68
2022/01/12 00:18:45;;;;;;;99.57;35.53;;;;;;;;;;5051401;28;20080;-68
2022/01/12 00:21:11;;;;;;;95.97;33.23;;;;;;;;;;5052910;28;20076;-69
2022/01/12 00:23:38;;;;;;;113.35;35.08;;;;;;;;;;5052317;28;20141;-69
2022/01/12 00:26:08;;;;;;;109.60;36.40;;;;;;;;;;5051657;28;20049;-69
2022/01/12 00:34:05;;;;;;;109.38;35.33;;;;;;;;;;5050632;28;20049;-69
2022/01/12 00:36:32;;;;;;;116.97;37.80;;;;;;;;;;5052701;28;20049;-69
2022/01/12 00:38:58;;;;;;;134.68;40.65;;;;;;;;;;5052141;28;20190;-69
2022/01/12 00:41:24;;;;;;;118.07;38.10;;;;;;;;;;5050842;28;20041;-69
2022/01/12 00:43:57;;;;;;;131.75;38.63;;;;;;;;;;5050941;28;20127;-69
2022/01/12 00:46:23;;;;;;;116.63;35.80;;;;;;;;;;5030257;28;20053;-69
2022/01/12 00:48:49;;;;;;;113.07;36.30;;;;;;;;;;5051900;28;20037;-69
2022/01/12 00:51:16;;;;;;;105.03;34.88;;;;;;;;;;5051822;28;20144;-69
2022/01/12 00:53:42;;;;;;;110.40;35.15;;;;;;;;;;5051041;28;20049;-69
2022/01/12 00:56:08;;;;;;;114.57;36.70;;;;;;;;;;5050797;28;20052;-69
2022/01/12 00:58:35;;;;;;;108.68;35.03;;;;;;;;;;5052045;28;20107;-69
2022/01/12 01:01:01;;;;;;;102.15;34.60;;;;;;;;;;5052177;28;20523;-69
2022/01/12 01:03:29;;;;;;;110.55;35.72;;;;;;;;;;5051674;28;20067;-69
2022/01/12 01:05:55;;;;;;;113.35;35.25;;;;;;;;;;5050694;28;20044;-69
2022/01/12 01:08:21;;;;;;;117.53;34.83;;;;;;;;;;5031580;28;20411;-69
2022/01/12 01:10:50;;;;;;;109.03;34.55;;;;;;;;;;5037538;28;20134;-69
2022/01/12 01:13:18;;;;;;;;;;;;;;;;;;5056903;28;20088;-68
2022/01/12 01:26:27;;;;;;;107.68;35.33;;;;;;;;;;5055457;28;20053;-68
2022/01/12 01:28:53;;;;;;;111.22;36.13;;;;;;;;;;5029785;28;20096;-68
2022/01/12 01:31:20;;;;;;;105.03;35.70;;;;;;;;;;5055309;28;20070;-68
2022/01/12 01:33:46;;;;;;;107.63;34.88;;;;;;;;;;5033747;28;20050;-69
2022/01/12 01:36:15;;;;;;;91.22;33.00;;;;;;;;;;5054200;28;20064;-68
2022/01/12 01:38:41;;;;;;;96.57;33.88;;;;;;;;;;5056510;28;20041;-67
2022/01/12 01:41:07;;;;;;;89.57;31.38;;;;;;;;;;5055833;28;20407;-67
2022/01/12 01:54:16;;;;;;;117.97;35.30;;;;;;;;;;5054419;28;20057;-68
2022/01/12 01:56:41;;;;;;;87.50;31.90;;;;;;;;;;5029952;28;20107;-68
2022/01/12 01:59:08;;;;;;;109.47;33.97;;;;;;;;;;5055012;28;20056;-68
2022/01/12 02:01:34;;;;;;;96.63;34.05;;;;;;;;;;5055004;28;20103;-69
2022/01/12 02:04:02;;;;;;;110.45;36.42;;;;;;;;;;5020060;28;20041;-68
2022/01/12 02:06:29;;;;;;;98.28;35.05;;;;;;;;;;5049371;28;20502;-68
2022/01/12 02:08:55;;;;;;;109.82;37.53;;;;;;;;;;5056085;28;20384;-68
2022/01/12 02:11:28;;;;;;;108.45;34.58;;;;;;;;;;5053692;28;20048;-68
2022/01/12 02:13:54;;;;;;;118.82;37.67;;;;;;;;;;5054102;28;20056;-68
2022/01/12 02:16:27;;;;;;;131.13;38.28;;;;;;;;;;5053698;28;20053;-68
2022/01/12 02:19:29;;;;;;;117.82;36.75;;;;;;;;;;5053883;28;20095;-68
2022/01/12 02:40:47;;;;;;;208.05;45.72;;;;;;;;;;4973763;28;20110;-68
2022/01/12 02:43:17;;;;;;;144.18;40.08;;;;;;;;;;4957557;28;20081;-68
2022/01/12 02:51:26;;;;;;;195.90;45.85;;;;;;;;;;4978668;28;20089;-67
2022/01/12 02:53:53;;;;;;;154.65;40.05;;;;;;;;;;4969217;28;20520;-68
2022/01/12 02:56:20;;;;;;;196.65;43.55;;;;;;;;;;4957402;28;20065;-68
2022/01/12 02:58:47;;;;;;;222.88;44.95;;;;;;;;;;4980053;28;20057;-68
2022/01/12 03:04:02;;;;;;;150.98;39.33;;;;;;;;;;4973515;28;20042;-68
2022/01/12 03:06:32;;;;;;;197.65;42.67;;;;;;;;;;4957174;28;20078;-68
2022/01/12 03:08:58;;;;;;;276.02;48.80;;;;;;;;;;4958321;28;20126;-68
2022/01/12 03:11:25;;;;;;;224.05;44.05;;;;;;;;;;4966157;28;20090;-68
2022/01/12 03:13:51;;;;;;;339.83;53.10;;;;;;;;;;4960857;28;20047;-68
2022/01/12 03:16:21;;;;;;;323.02;47.15;;;;;;;;;;4956837;28;20042;-68
2022/01/12 03:18:48;;;;;;;262.92;47.03;;;;;;;;;;5030344;28;20053;-68
2022/01/12 03:21:15;;;;;;;229.10;43.33;;;;;;;;;;5052633;28;20479;-68
2022/01/12 03:23:41;;;;;;;163.02;40.05;;;;;;;;;;5052530;28;20051;-68
2022/01/12 03:26:09;;;;;;;366.13;53.08;;;;;;;;;;5053039;28;20402;-68
2022/01/12 03:28:35;;;;;;;429.50;56.63;;;;;;;;;;5052583;28;20081;-68
2022/01/12 03:31:13;;;;;;;296.10;47.40;;;;;;;;;;5052005;28;20125;-68
2022/01/12 03:39:00;;;;;;;350.00;50.05;;;;;;;;;;5033400;28;20268;-68
2022/01/12 03:41:29;;;;;;;298.67;47.03;;;;;;;;;;5050848;28;20091;-68
2022/01/12 03:43:56;;;;;;;226.50;42.10;;;;;;;;;;5053909;28;20036;-68
2022/01/12 03:46:24;;;;;;;429.25;56.45;;;;;;;;;;5052171;28;20044;-68
2022/01/12 03:48:50;;;;;;;458.17;59.08;;;;;;;;;;5052903;28;20132;-68
2022/01/12 03:51:16;;;;;;;264.60;45.33;;;;;;;;;;5053266;28;20135;-68
2022/01/12 03:53:42;;;;;;;356.10;50.67;;;;;;;;;;5053573;28;20590;-68
2022/01/12 03:56:09;;;;;;;458.50;58.75;;;;;;;;;;5052976;28;20080;-68
2022/01/12 03:58:35;;;;;;;368.67;52.10;;;;;;;;;;5051611;28;20044;-68
2022/01/12 04:01:01;;;;;;;396.33;49.35;;;;;;;;;;5053710;28;20045;-68
2022/01/12 04:03:29;;;;;;;474.70;59.80;;;;;;;;;;5051855;28;20041;-68
2022/01/12 04:08:24;;;;;;;226.90;43.50;;;;;;;;;;5049874;28;20052;-68
2022/01/12 04:10:51;;;;;;;428.85;50.53;;;;;;;;;;5053793;28;20044;-68
2022/01/12 04:13:18;;;;;;;196.60;40.03;;;;;;;;;;5053046;28;20487;-68
2022/01/12 04:15:45;;;;;;;158.65;38.63;;;;;;;;;;5051981;28;20045;-68
2022/01/12 04:18:11;;;;;;;390.70;53.75;;;;;;;;;;5054692;28;20041;-67
2022/01/12 04:20:49;;;;;;;401.52;52.42;;;;;;;;;;5054639;28;20052;-68
2022/01/12 04:23:19;;;;;;;198.95;41.42;;;;;;;;;;5032698;28;20053;-68
2022/01/12 04:25:58;;;;;;;444.70;54.67;;;;;;;;;;5045640;28;20048;-68
2022/01/12 04:28:25;;;;;;;214.18;43.35;;;;;;;;;;5052764;28;20056;-68
2022/01/12 04:30:52;;;;;;;208.73;39.95;;;;;;;;;;5051537;28;20503;-68
2022/01/12 04:33:19;;;;;;;182.27;39.72;;;;;;;;;;5038194;28;20434;-68
2022/01/12 04:35:52;;;;;;;287.70;40.55;;;;;;;;;;5052224;28;20550;-68
2022/01/12 04:38:19;;;;;;;251.32;43.42;;;;;;;;;;5053736;28;20056;-68
2022/01/12 04:40:47;;;;;;;381.10;50.50;;;;;;;;;;5051259;28;20041;-68
2022/01/12 04:43:13;;;;;;;218.73;41.35;;;;;;;;;;5051771;28;20052;-68
2022/01/12 04:45:57;;;;;;;262.73;41.45;;;;;;;;;;5052445;28;20120;-68
2022/01/12 04:50:51;;;;;;;419.40;52.42;;;;;;;;;;5052693;28;20052;-68
2022/01/12 04:53:19;;;;;;;353.60;49.20;;;;;;;;;;5051143;28;20040;-69
2022/01/12 04:55:45;;;;;;;301.17;47.83;;;;;;;;;;5031407;28;20045;-68
2022/01/12 04:58:11;;;;;;;316.77;47.67;;;;;;;;;;5054043;28;20037;-68
2022/01/12 05:00:40;;;;;;;386.98;52.95;;;;;;;;;;5051484;28;20044;-69
2022/01/12 05:09:30;;;;;;;220.13;42.83;;;;;;;;;;5052203;28;20049;-66
2022/01/12 05:14:07;;;;;;;264.70;45.08;;;;;;;;;;5052254;28;20044;-67
2022/01/12 05:16:33;;;;;;;290.52;45.63;;;;;;;;;;5052965;28;20102;-67
2022/01/12 05:19:00;;;;;;;249.73;45.20;;;;;;;;;;5051088;28;20049;-68
2022/01/12 05:21:26;;;;;;;234.27;44.65;;;;;;;;;;5052085;28;20088;-68
2022/01/12 05:23:53;;;;;;;222.07;41.38;;;;;;;;;;5050662;28;20492;-67
2022/01/12 05:26:19;;;;;;;202.40;41.92;;;;;;;;;;5051414;28;20048;-68
2022/01/12 05:28:45;;;;;;;184.00;38.03;;;;;;;;;;5050709;28;20433;-68
2022/01/12 05:31:11;;;;;;;261.05;41.40;;;;;;;;;;5049586;28;20094;-69
2022/01/12 05:33:38;;;;;;;190.77;39.92;;;;;;;;;;5051890;28;20045;-68
2022/01/12 05:36:05;;;;;;;140.18;32.28;;;;;;;;;;5052687;28;20048;-68
2022/01/12 05:38:31;;;;;;;126.53;32.47;;;;;;;;;;5050581;28;20056;-68
2022/01/12 05:41:02;;;;;;;116.25;30.40;;;;;;;;;;5033359;28;20041;-68
2022/01/12 05:43:30;;;;;;;119.43;30.58;;;;;;;;;;5053640;28;20396;-68
2022/01/12 05:45:59;;;;;;;110.32;29.83;;;;;;;;;;5051750;28;20048;-68
2022/01/12 05:51:09;;;;;;;153.45;36.35;;;;;;;;;;5049375;28;20053;-68
2022/01/12 05:53:35;;;;;;;202.93;38.63;;;;;;;;;;5050778;28;20131;-67
2022/01/12 05:56:01;;;;;;;272.65;42.55;;;;;;;;;;5054076;28;20044;-67
2022/01/12 05:58:27;;;;;;;288.30;44.58;;;;;;;;;;5038581;28;20051;-67
2022/01/12 06:00:54;;;;;;;241.80;40.85;;;;;;;;;;5055753;28;20620;-67
2022/01/12 06:03:20;;;;;;;162.00;35.78;;;;;;;;;;5055380;28;20040;-67
2022/01/12 06:05:46;;;;;;;203.95;39.35;;;;;;;;;;5053537;28;20045;-67
2022/01/12 06:08:15;;;;;;;;;;;;;;;;;;5055244;28;20103;-68
2022/01/12 06:10:41;;;;;;;294.27;42.25;;;;;;;;;;5055190;28;19924;-68
2022/01/12 06:13:07;;;;;;;337.75;43.63;;;;;;;;;;5053958;28;20049;-67
2022/01/12 06:15:33;;;;;;;596.58;64.35;;;;;;;;;;5033924;28;20049;-68
2022/01/12 06:17:59;;;;;;;698.22;69.15;;;;;;;;;;5050931;28;20053;-67
2022/01/12 06:20:25;;;;;;;492.20;55.10;;;;;;;;;;5054711;28;20127;-68
2022/01/12 06:22:52;;;;;;;652.50;66.68;;;;;;;;;;5055060;28;20483;-68
2022/01/12 06:25:18;;;;;;;545.08;63.35;;;;;;;;;;5053841;28;20041;-68
2022/01/12 06:27:54;;;;;;;540.95;57.65;;;;;;;;;;5037881;28;20509;-68
2022/01/12 06:32:57;;;;;;;611.33;64.63;;;;;;;;;;5053573;28;20065;-68
2022/01/12 06:35:24;;;;;;;628.78;61.72;;;;;;;;;;5050547;28;20423;-68
2022/01/12 06:37:50;;;;;;;533.25;59.35;;;;;;;;;;5054565;28;20056;-68
2022/01/12 06:40:18;;;;;;;216.35;42.08;;;;;;;;;;5028340;28;20053;-68
2022/01/12 06:42:44;;;;;;;274.33;45.00;;;;;;;;;;5053497;28;20041;-68
2022/01/12 06:45:10;;;;;;;571.80;65.18;;;;;;;;;;5053142;28;20456;-68
2022/01/12 06:47:36;;;;;;;250.10;44.75;;;;;;;;;;5053044;28;20442;-68
2022/01/12 06:50:04;;;;;;;245.60;43.40;;;;;;;;;;5053158;28;20048;-68
2022/01/12 06:52:30;;;;;;;282.42;46.55;;;;;;;;;;5053985;28;20049;-68
2022/01/12 06:54:55;;;;;;;265.80;46.88;;;;;;;;;;5053033;28;20392;-68
2022/01/12 06:57:21;;;;;;;366.50;50.10;;;;;;;;;;5052908;28;20132;-68
2022/01/12 06:59:47;;;;;;;242.82;43.92;;;;;;;;;;5054199;28;20044;-68
2022/01/12 07:02:13;;;;;;;262.73;43.78;;;;;;;;;;5053230;28;20040;-69
2022/01/12 07:04:39;;;;;;;263.02;46.33;;;;;;;;;;5053753;28;20075;-68
2022/01/12 07:07:05;;;;;;;279.15;44.03;;;;;;;;;;5052484;28;20049;-69
2022/01/12 07:09:31;;;;;;;316.55;49.72;;;;;;;;;;5031168;28;20049;-69
2022/01/12 07:11:57;;;;;;;327.80;55.78;;;;;;;;;;5053396;28;20431;-68
2022/01/12 07:14:23;;;;;;;305.00;53.90;;;;;;;;;;5052846;28;20052;-68
2022/01/12 07:16:49;;;;;;;524.17;61.47;;;;;;;;;;5053133;28;20049;-69
2022/01/12 07:19:15;;;;;;;471.13;59.47;;;;;;;;;;5053229;28;20045;-68
2022/01/12 07:21:41;;;;;;;678.35;70.53;;;;;;;;;;5054306;28;20071;-68
2022/01/12 07:24:08;;;;;;;641.95;62.88;;;;;;;;;;5055139;28;20060;-68
2022/01/12 07:26:34;;;;;;;611.35;62.90;;;;;;;;;;5052027;28;20049;-68
2022/01/12 07:29:01;;;;;;;756.00;76.13;;;;;;;;;;5052649;28;20127;-68
2022/01/12 07:31:27;;;;;;;933.17;86.55;;;;;;;;;;5036603;28;20501;-68
2022/01/12 07:33:54;;;;;;;581.78;61.17;;;;;;;;;;5043291;28;20133;-67
2022/01/12 07:36:20;;;;;;;850.72;70.53;;;;;;;;;;5054217;28;20045;-67
2022/01/12 07:38:55;;;;;;;311.10;44.03;;;;;;;;;;5053677;28;20128;-67
2022/01/12 07:41:21;;;;;;;243.48;42.10;;;;;;;;;;5053404;28;20075;-67
2022/01/12 07:43:47;;;;;;;699.70;64.30;;;;;;;;;;5052090;28;20484;-67
2022/01/12 07:46:13;;;;;;;721.90;68.85;;;;;;;;;;5053355;28;20044;-67
2022/01/12 07:48:39;;;;;;;372.08;50.05;;;;;;;;;;5052531;28;20502;-67
2022/01/12 07:51:05;;;;;;;522.95;60.53;;;;;;;;;;5052366;28;20049;-67
2022/01/12 07:53:31;;;;;;;267.17;48.33;;;;;;;;;;5051940;28;20097;-67
2022/01/12 07:55:57;;;;;;;518.78;55.47;;;;;;;;;;5052691;28;20499;-67
2022/01/12 07:58:23;;;;;;;627.53;62.15;;;;;;;;;;5051910;28;20056;-67
2022/01/12 08:00:49;;;;;;;882.47;76.35;;;;;;;;;;5053251;28;20052;-68
2022/01/12 08:03:15;;;;;;;329.33;51.28;;;;;;;;;;5052140;28;20044;-68
2022/01/12 08:05:41;;;;;;;607.60;63.50;;;;;;;;;;5053625;28;20475;-67
2022/01/12 08:08:07;;;;;;;551.30;58.92;;;;;;;;;;5053779;28;20052;-68
2022/01/12 08:10:33;;;;;;;444.75;54.58;;;;;;;;;;5052827;28;20057;-68
2022/01/12 08:12:59;;;;;;;344.52;44.38;;;;;;;;;;5053050;28;20045;-68
2022/01/12 08:15:25;;;;;;;339.08;59.08;;;;;;;;;;5051567;28;20514;-68
2022/01/12 08:17:51;;;;;;;216.50;45.95;;;;;;;;;;5052019;28;20048;-68
2022/01/12 08:20:21;;;;;;;360.17;67.45;;;;;;;;;;5051632;28;20045;-67
2022/01/12 08:22:47;;;;;;;413.38;73.60;;;;;;;;;;5052893;28;20162;-68
2022/01/12 08:25:13;;;;;;;286.45;58.35;;;;;;;;;;5052664;28;21596;-67
2022/01/12 08:27:39;;;;;;;291.10;60.00;;;;;;;;;;5034724;28;20040;-68
2022/01/12 08:30:06;;;;;;;225.70;42.92;;;;;;;;;;5051326;28;20060;-68
2022/01/12 08:32:32;;;;;;;155.13;35.22;;;;;;;;;;5051495;28;20053;-68
2022/01/12 08:34:58;;;;;;;193.13;38.85;;;;;;;;;;5049801;28;20156;-67
2022/01/12 08:37:25;;;;;;;197.57;38.38;;;;;;;;;;5051059;28;20127;-67
2022/01/12 08:39:51;;;;;;;208.15;41.70;;;;;;;;;;5035048;28;20064;-67
2022/01/12 08:42:17;;;;;;;229.55;39.65;;;;;;;;;;5052202;28;20048;-68
2022/01/12 08:44:43;;;;;;;506.70;50.13;;;;;;;;;;5051080;28;20044;-68
2022/01/12 08:47:09;;;;;;;356.08;45.40;;;;;;;;;;5051220;28;20051;-68
2022/01/12 08:49:35;;;;;;;363.25;68.35;;;;;;;;;;5051629;28;20503;-68
2022/01/12 08:52:01;;;;;;;274.88;50.53;;;;;;;;;;5052250;28;20053;-68
2022/01/12 08:54:27;;;;;;;219.30;42.22;;;;;;;;;;5050901;28;20049;-67
2022/01/12 08:56:53;;;;;;;426.73;47.92;;;;;;;;;;5051023;28;20163;-68
2022/01/12 08:59:19;;;;;;;247.57;40.42;;;;;;;;;;5035176;28;20051;-68
2022/01/12 09:01:45;;;;;;;286.33;43.70;;;;;;;;;;5050773;28;20045;-68
2022/01/12 09:04:11;;;;;;;259.52;43.30;;;;;;;;;;5050859;28;20458;-68
2022/01/12 09:06:37;;;;;;;222.52;41.92;;;;;;;;;;5051861;28;20044;-68
2022/01/12 09:09:04;;;;;;;418.52;47.85;;;;;;;;;;5053104;28;20404;-68
2022/01/12 09:11:30;;;;;;;410.00;47.03;;;;;;;;;;5050844;28;20072;-68
2022/01/12 09:13:56;;;;;;;356.65;45.92;;;;;;;;;;5051927;28;20052;-68
2022/01/12 09:16:22;;;;;;;304.35;41.60;;;;;;;;;;5050925;28;20491;-68
2022/01/12 09:18:48;;;;;;;205.70;39.95;;;;;;;;;;5025593;28;20175;-68
2022/01/12 09:21:14;;;;;;;204.40;36.85;;;;;;;;;;5051627;28;20129;-68
2022/01/12 09:23:40;;;;;;;213.55;37.28;;;;;;;;;;5050810;28;20053;-68
2022/01/12 09:26:06;;;;;;;226.85;38.85;;;;;;;;;;5051772;28;20037;-68
2022/01/12 09:28:32;;;;;;;231.27;36.72;;;;;;;;;;5051999;28;20293;-68
2022/01/12 09:30:58;;;;;;;258.38;37.90;;;;;;;;;;5055801;28;20041;-68
2022/01/12 09:33:25;;;;;;;299.77;38.03;;;;;;;;;;5054609;28;20057;-67
2022/01/12 09:35:53;;;;;;;385.13;41.22;;;;;;;;;;5056540;28;20049;-67
2022/01/12 09:38:19;;;;;;;317.35;38.15;;;;;;;;;;5033602;28;20048;-67
2022/01/12 09:40:46;;;;;;;200.20;31.52;;;;;;;;;;5054598;28;20056;-68
2022/01/12 09:43:12;;;;;;;173.07;30.83;;;;;;;;;;5054540;28;20091;-68
2022/01/12 09:45:43;;;;;;;156.52;29.27;;;;;;;;;;5055151;28;20042;-67
2022/01/12 09:48:10;;;;;;;167.82;28.55;;;;;;;;;;5055248;28;20498;-68
2022/01/12 09:50:36;;;;;;;164.90;29.50;;;;;;;;;;5054519;28;20387;-69
2022/01/12 09:53:02;;;;;;;139.07;27.17;;;;;;;;;;5055973;28;20101;-69
2022/01/12 09:55:28;;;;;;;146.30;26.88;;;;;;;;;;5056026;28;20051;-69
2022/01/12 09:57:54;;;;;;;144.35;27.67;;;;;;;;;;5054114;28;20049;-69
2022/01/12 10:00:24;;;;;;;119.60;24.58;;;;;;;;;;5055103;28;20094;-69
2022/01/12 10:02:50;;;;;;;127.07;24.98;;;;;;;;;;5055283;28;20052;-69
2022/01/12 10:05:17;;;;;;;117.03;26.08;;;;;;;;;;5053970;28;20051;-69
2022/01/12 10:07:43;;;;;;;112.32;24.42;;;;;;;;;;5054559;28;20048;-69
2022/01/12 10:10:14;;;;;;;100.45;22.75;;;;;;;;;;5037491;28;20041;-69
2022/01/12 10:12:40;;;;;;;98.93;22.38;;;;;;;;;;5051817;28;20037;-69
2022/01/12 10:15:10;;;;;;;121.90;25.17;;;;;;;;;;5058477;28;20045;-68
2022/01/12 10:17:37;;;;;;;226.80;40.88;;;;;;;;;;5058178;28;20088;-68
2022/01/12 10:20:07;;;;;;;98.95;21.15;;;;;;;;;;5055776;28;20128;-69
2022/01/12 10:22:33;;;;;;;123.45;24.20;;;;;;;;;;5055049;28;20079;-69
2022/01/12 10:25:01;;;;;;;109.45;22.65;;;;;;;;;;5054464;28;20484;-69
2022/01/12 10:27:27;;;;;;;81.53;18.85;;;;;;;;;;5054918;28;20056;-69
2022/01/12 10:29:57;;;;;;;86.68;19.30;;;;;;;;;;5053885;28;20045;-69
2022/01/12 10:32:23;;;;;;;85.70;19.52;;;;;;;;;;5054633;28;20041;-68
2022/01/12 10:34:50;;;;;;;82.90;18.65;;;;;;;;;;5055283;28;20056;-69
2022/01/12 10:37:22;;;;;;;98.07;20.38;;;;;;;;;;5053876;28;20136;-69
2022/01/12 10:39:48;;;;;;;70.78;16.52;;;;;;;;;;5055301;28;20120;-69
2022/01/12 10:42:17;;;;;;;72.65;15.88;;;;;;;;;;5052076;28;20049;-69
2022/01/12 10:44:53;;;;;;;55.05;13.77;;;;;;;;;;5049962;28;20445;-69
2022/01/12 10:47:19;;;;;;;62.35;13.40;;;;;;;;;;5052527;28;20605;-69
2022/01/12 10:49:58;;;;;;;55.90;12.63;;;;;;;;;;5053921;28;20056;-69
2022/01/12 10:52:51;;;;;;;53.28;11.68;;;;;;;;;;5053185;28;20080;-69
2022/01/12 10:55:17;;;;;;;46.90;11.55;;;;;;;;;;5051606;28;20057;-69
2022/01/12 10:57:44;;;;;;;47.35;10.88;;;;;;;;;;5032127;28;20100;-69
2022/01/12 11:00:21;;;;;;;45.20;11.55;;;;;;;;;;5054298;28;20434;-69
2022/01/12 11:02:47;;;;;;;47.80;11.00;;;;;;;;;;5034364;28;20042;-69
2022/01/12 11:05:13;;;;;;;46.45;10.60;;;;;;;;;;5033248;28;20411;-69
2022/01/12 11:07:40;;;;;;;39.53;10.00;;;;;;;;;;5052935;28;20080;-69
2022/01/12 11:10:07;;;;;;;47.85;10.63;;;;;;;;;;5052616;28;20041;-69
2022/01/12 11:12:35;;;;;;;35.28;9.93;;;;;;;;;;5053797;28;20495;-69
2022/01/12 11:15:01;;;;;;;42.25;11.23;;;;;;;;;;5035859;28;20041;-68
2022/01/12 11:17:27;;;;;;;46.90;10.98;;;;;;;;;;5050290;28;20041;-68
2022/01/12 11:20:12;;;;;;;55.35;12.98;;;;;;;;;;5043738;28;20106;-69
2022/01/12 11:22:44;;;;;;;63.67;14.45;;;;;;;;;;5048254;28;20041;-69
2022/01/12 11:25:17;;;;;;;32.88;9.48;;;;;;;;;;5052484;28;20049;-68
2022/01/12 11:27:44;;;;;;;47.35;11.93;;;;;;;;;;5054463;28;20098;-69
2022/01/12 11:30:21;;;;;;;45.65;11.07;;;;;;;;;;5053696;28;20403;-68
2022/01/12 11:32:58;;;;;;;40.95;10.85;;;;;;;;;;5050238;28;20140;-69
2022/01/12 11:35:30;;;;;;;46.50;11.63;;;;;;;;;;5023793;28;20107;-68
2022/01/12 11:37:59;;;;;;;42.42;10.57;;;;;;;;;;5037078;28;20098;-68
2022/01/12 11:40:32;;;;;;;43.17;9.85;;;;;;;;;;5027869;28;20491;-69
2022/01/12 11:42:58;;;;;;;50.00;11.00;;;;;;;;;;5052213;28;20072;-69
2022/01/12 11:45:24;;;;;;;36.55;9.40;;;;;;;;;;5051870;28;20076;-68
2022/01/12 11:47:51;;;;;;;42.35;9.70;;;;;;;;;;5034769;28;20053;-68
2022/01/12 11:50:17;;;;;;;35.75;9.25;;;;;;;;;;5052994;28;20049;-69
2022/01/12 11:52:43;;;;;;;38.58;8.88;;;;;;;;;;5021706;28;20406;-68
2022/01/12 11:55:17;;;;;;;40.35;8.43;;;;;;;;;;5040947;28;20403;-68
2022/01/12 11:57:47;;;;;;;33.65;8.63;;;;;;;;;;5051488;28;20053;-68
2022/01/12 12:00:15;;;;;;;29.65;8.93;;;;;;;;;;5051657;28;20059;-68
2022/01/12 12:02:42;;;;;;;36.83;8.23;;;;;;;;;;5049934;28;20041;-67
2022/01/12 12:05:08;;;;;;;34.75;9.68;;;;;;;;;;5048071;28;20441;-69
2022/01/12 12:07:54;;;;;;;38.08;8.75;;;;;;;;;;5049189;28;20045;-69
2022/01/12 12:10:27;;;;;;;35.22;8.60;;;;;;;;;;5038943;28;20132;-68
2022/01/12 12:12:54;;;;;;;30.55;8.95;;;;;;;;;;5051739;28;20052;-68
2022/01/12 12:15:21;;;;;;;41.63;10.35;;;;;;;;;;5051496;28;20045;-68
2022/01/12 12:17:47;;;;;;;44.03;10.60;;;;;;;;;;5051456;28;20041;-68
2022/01/12 12:20:14;;;;;;;35.90;9.60;;;;;;;;;;5052268;28;20057;-68
2022/01/12 12:22:41;;;;;;;37.58;9.73;;;;;;;;;;5052622;28;20380;-68
2022/01/12 12:25:09;;;;;;;40.08;9.52;;;;;;;;;;5052335;28;20495;-68
2022/01/12 12:27:37;;;;;;;34.05;9.07;;;;;;;;;;5051634;28;20045;-68
2022/01/12 12:30:07;;;;;;;33.53;9.15;;;;;;;;;;5035269;28;20049;-69
2022/01/12 12:32:33;;;;;;;34.30;9.57;;;;;;;;;;5052292;28;20045;-69
2022/01/12 12:35:00;;;;;;;34.83;9.25;;;;;;;;;;5052313;28;20043;-68
2022/01/12 12:37:33;;;;;;;33.70;9.20;;;;;;;;;;5034680;28;20044;-69
2022/01/12 12:39:59;;;;;;;31.67;9.10;;;;;;;;;;5052496;28;20556;-68
2022/01/12 12:42:25;;;;;;;43.17;9.82;;;;;;;;;;5053199;28;20515;-68
2022/01/12 12:45:02;;;;;;;30.63;8.95;;;;;;;;;;5050899;28;20052;-68
2022/01/12 12:47:28;;;;;;;37.20;10.02;;;;;;;;;;5052327;28;20040;-68
2022/01/12 12:49:56;;;;;;;168.73;33.55;;;;;;;;;;5051023;28;20094;-68
2022/01/12 12:52:35;;;;;;;39.90;10.52;;;;;;;;;;5051812;28;20388;-68
2022/01/12 12:55:04;;;;;;;43.13;10.10;;;;;;;;;;5051512;28;20072;-67
2022/01/12 12:57:30;;;;;;;41.78;9.68;;;;;;;;;;5051141;28;20107;-68
2022/01/12 13:00:08;;;;;;;44.88;11.20;;;;;;;;;;5050905;28;20045;-67
2022/01/12 13:02:38;;;;;;;35.35;10.57;;;;;;;;;;5034435;28;20510;-68
2022/01/12 13:05:05;;;;;;;38.33;9.38;;;;;;;;;;5050151;28;20076;-68
2022/01/12 13:07:35;;;;;;;35.88;8.85;;;;;;;;;;5052952;28;20041;-68
2022/01/12 13:10:11;;;;;;;30.10;8.20;;;;;;;;;;5050830;28;20402;-68
2022/01/12 13:12:38;;;;;;;28.90;9.35;;;;;;;;;;5051150;28;20041;-67
2022/01/12 13:15:06;;;;;;;32.13;9.30;;;;;;;;;;5051069;28;20407;-67
2022/01/12 13:17:38;;;;;;;48.95;10.13;;;;;;;;;;5051933;28;20053;-67
2022/01/12 13:22:38;;;;;;;55.95;11.40;;;;;;;;;;5050527;28;20053;-68
2022/01/12 13:25:09;;;;;;;31.13;8.77;;;;;;;;;;5050519;28;20041;-68
2022/01/12 13:27:36;;;;;;;32.17;9.18;;;;;;;;;;5035045;28;20083;-68
2022/01/12 13:30:04;;;;;;;30.45;7.93;;;;;;;;;;5051954;28;20040;-68
2022/01/12 13:32:30;;;;;;;39.35;9.98;;;;;;;;;;5032756;28;20048;-68
2022/01/12 13:34:57;;;;;;;35.75;9.60;;;;;;;;;;5050692;28;20053;-68
2022/01/12 13:37:23;;;;;;;55.85;12.00;;;;;;;;;;5034508;28;20495;-67
2022/01/12 13:40:02;;;;;;;33.65;9.15;;;;;;;;;;5031834;28;20081;-68
2022/01/12 13:42:28;;;;;;;33.67;9.10;;;;;;;;;;5051108;28;20041;-67
2022/01/12 13:45:03;;;;;;;32.58;8.55;;;;;;;;;;5051707;28;20053;-68
2022/01/12 13:47:34;;;;;;;25.15;7.95;;;;;;;;;;5050639;28;20052;-68
2022/01/12 13:50:02;;;;;;;61.83;28.80;;;;;;;;;;5051458;28;20041;-68
2022/01/12 13:52:28;;;;;;;86.22;34.70;;;;;;;;;;5051118;28;20040;-68
2022/01/12 13:54:54;;;;;;;56.70;22.63;;;;;;;;;;5050169;28;20045;-68
2022/01/12 13:57:23;;;;;;;38.67;11.38;;;;;;;;;;5051582;28;20124;-68
2022/01/12 13:59:53;;;;;;;27.50;8.10;;;;;;;;;;5050491;28;20491;-68
2022/01/12 14:02:25;;;;;;;33.22;8.70;;;;;;;;;;5051180;28;20122;-68
2022/01/12 14:05:05;;;;;;;48.50;10.93;;;;;;;;;;5051610;28;20563;-68
2022/01/12 14:07:35;;;;;;;53.97;18.50;;;;;;;;;;5037315;28;20046;-69
2022/01/12 14:10:03;;;;;;;34.75;12.60;;;;;;;;;;5051666;28;20414;-68
2022/01/12 14:12:29;;;;;;;44.40;11.52;;;;;;;;;;5052169;28;20055;-68
2022/01/12 14:14:59;;;;;;;42.95;13.45;;;;;;;;;;5051465;28;20080;-68
2022/01/12 14:17:25;;;;;;;33.00;7.93;;;;;;;;;;5055084;28;20057;-68
2022/01/12 14:20:01;;;;;;;37.00;11.25;;;;;;;;;;5054819;28;20040;-68
2022/01/12 14:22:28;;;;;;;32.58;9.57;;;;;;;;;;5054284;28;20495;-68
2022/01/12 14:24:55;;;;;;;35.72;9.27;;;;;;;;;;5054759;28;23281;-69
2022/01/12 14:27:21;;;;;;;38.63;11.55;;;;;;;;;;5054672;28;20041;-68
2022/01/12 14:29:47;;;;;;;35.90;10.20;;;;;;;;;;5053384;28;20112;-68
2022/01/12 14:32:13;;;;;;;39.15;10.48;;;;;;;;;;5053412;28;20123;-68
2022/01/12 14:34:39;;;;;;;32.47;10.13;;;;;;;;;;5054327;28;20483;-68
2022/01/12 14:37:06;;;;;;;38.28;10.38;;;;;;;;;;5053999;28;20052;-68
2022/01/12 14:39:32;;;;;;;36.72;10.15;;;;;;;;;;5053365;28;20098;-68
2022/01/12 14:41:58;;;;;;;38.88;10.32;;;;;;;;;;5043910;28;20123;-69
2022/01/12 14:44:28;;;;;;;36.28;9.60;;;;;;;;;;5040701;28;20045;-68
2022/01/12 14:46:54;;;;;;;33.70;9.88;;;;;;;;;;5034688;28;20372;-68
2022/01/12 14:49:20;;;;;;;35.20;9.10;;;;;;;;;;5035635;28;20392;-68
2022/01/12 14:51:46;;;;;;;34.83;10.43;;;;;;;;;;5034609;28;20041;-69
2022/01/12 14:54:13;;;;;;;48.90;12.15;;;;;;;;;;5038825;28;20037;-68
2022/01/12 14:56:39;;;;;;;27.88;8.50;;;;;;;;;;5042652;28;20132;-68
2022/01/12 14:59:05;;;;;;;40.72;9.40;;;;;;;;;;5042712;28;20125;-68
2022/01/12 15:01:31;;;;;;;56.97;10.50;;;;;;;;;;5034640;28;20087;-68
2022/01/12 15:03:57;;;;;;;34.72;11.50;;;;;;;;;;5034891;28;20463;-67
2022/01/12 15:06:23;;;;;;;69.65;13.05;;;;;;;;;;5034206;28;20038;-67
2022/01/12 15:08:49;;;;;;;34.22;11.13;;;;;;;;;;5034003;28;20052;-66
2022/01/12 15:11:14;;;;;;;31.77;10.10;;;;;;;;;;5046556;28;20041;-67
2022/01/12 15:16:36;;;;;;;27.52;9.57;;;;;;;;;;4957665;28;20065;-69
2022/01/12 15:19:02;;;;;;;41.25;11.50;;;;;;;;;;4972985;28;20046;-68
2022/01/12 15:21:28;;;;;;;36.40;12.27;;;;;;;;;;4956866;28;20533;-69
2022/01/12 15:23:54;;;;;;;37.88;11.68;;;;;;;;;;4956818;28;20105;-69
2022/01/12 15:26:20;;;;;;;35.28;10.75;;;;;;;;;;4956669;28;20085;-68
2022/01/12 15:28:45;;;;;;;30.98;10.18;;;;;;;;;;4956367;28;20092;-68
2022/01/12 15:31:12;;;;;;;41.95;11.85;;;;;;;;;;4956523;28;20047;-68
2022/01/12 15:33:37;;;;;;;36.97;10.60;;;;;;;;;;4940520;28;20059;-68
2022/01/12 15:36:04;;;;;;;36.85;11.68;;;;;;;;;;4972866;28;20077;-68
2022/01/12 15:38:30;;;;;;;31.85;11.13;;;;;;;;;;4957068;28;20046;-67